createdAt,value
2024-03-24T00:01:03.844Z,3.73
2024-03-24T00:03:53.381Z,3.83
2024-03-24T00:06:22.541Z,3.80
2024-03-24T00:08:52.926Z,3.77
2024-03-24T00:11:21.561Z,3.78
2024-03-24T00:13:50.653Z,3.75
2024-03-24T00:16:20.318Z,3.80
2024-03-24T00:18:49.418Z,3.84
2024-03-24T00:21:18.606Z,3.83
2024-03-24T00:23:47.644Z,3.77
2024-03-24T00:26:16.854Z,3.82
2024-03-24T00:28:45.901Z,3.76
2024-03-24T00:31:14.893Z,3.74
2024-03-24T00:33:43.998Z,3.78
2024-03-24T00:36:13.096Z,3.77
2024-03-24T00:38:41.614Z,3.67
2024-03-24T00:41:10.999Z,3.71
2024-03-24T00:43:39.980Z,3.67
2024-03-24T00:46:09.236Z,3.58
2024-03-24T00:48:38.079Z,3.47
2024-03-24T00:51:07.171Z,3.46
2024-03-24T00:53:36.181Z,3.41
2024-03-24T00:56:05.386Z,3.45
2024-03-24T00:58:34.562Z,3.47
2024-03-24T01:01:03.894Z,3.43
2024-03-24T01:03:36.235Z,3.37
2024-03-24T01:06:07.857Z,3.29
2024-03-24T01:08:36.946Z,3.21
2024-03-24T01:11:07.176Z,3.17
2024-03-24T01:13:35.714Z,3.16
2024-03-24T01:16:06.229Z,3.11
2024-03-24T01:18:35.203Z,3.08
2024-03-24T01:21:04.480Z,3.02
2024-03-24T01:23:33.510Z,3.02
2024-03-24T01:26:03.121Z,3.00
2024-03-24T01:28:31.684Z,2.99
2024-03-24T01:31:00.253Z,3.00
2024-03-24T01:33:29.399Z,3.00
2024-03-24T01:35:58.022Z,3.03
2024-03-24T01:38:27.070Z,3.02
2024-03-24T01:40:56.110Z,3.00
2024-03-24T01:43:25.228Z,2.96
2024-03-24T01:45:54.523Z,2.95
2024-03-24T01:48:24.041Z,2.93
2024-03-24T01:50:53.453Z,2.91
2024-03-24T01:53:22.300Z,2.89
2024-03-24T01:55:51.415Z,2.88
2024-03-24T01:58:20.041Z,2.88
2024-03-24T02:00:48.631Z,2.91
2024-03-24T02:03:17.644Z,2.93
2024-03-24T02:05:46.673Z,3.00
2024-03-24T02:08:15.227Z,3.01
2024-03-24T02:10:44.892Z,3.00
2024-03-24T02:13:13.901Z,3.05
2024-03-24T02:15:42.638Z,3.13
2024-03-24T02:18:11.967Z,3.13
2024-03-24T02:20:40.649Z,3.16
2024-03-24T02:23:10.294Z,3.15
2024-03-24T02:25:39.630Z,3.15
2024-03-24T02:28:08.861Z,3.16
2024-03-24T02:30:37.490Z,3.11
2024-03-24T02:33:06.469Z,3.08
2024-03-24T02:35:35.644Z,3.08
2024-03-24T02:38:04.629Z,3.08
2024-03-24T02:40:33.284Z,3.02
2024-03-24T02:43:01.866Z,3.06
2024-03-24T02:45:30.822Z,3.08
2024-03-24T02:47:59.998Z,3.08
2024-03-24T02:50:29.105Z,3.04
2024-03-24T02:52:57.595Z,3.06
2024-03-24T02:55:26.712Z,3.06
2024-03-24T02:57:55.901Z,3.02
2024-03-24T03:00:24.974Z,2.98
2024-03-24T03:02:54.563Z,2.97
2024-03-24T03:05:23.606Z,2.92
2024-03-24T03:07:52.684Z,2.87
2024-03-24T03:10:21.766Z,2.85
2024-03-24T03:12:50.754Z,2.85
2024-03-24T03:15:19.750Z,2.86
2024-03-24T03:17:48.826Z,2.82
2024-03-24T03:20:19.483Z,2.80
2024-03-24T03:22:48.153Z,2.76
2024-03-24T03:25:17.668Z,2.83
2024-03-24T03:27:47.037Z,2.79
2024-03-24T03:30:16.116Z,2.78
2024-03-24T03:32:44.613Z,2.82
2024-03-24T03:35:13.652Z,2.78
2024-03-24T03:37:42.326Z,2.72
2024-03-24T03:40:12.103Z,2.72
2024-03-24T03:42:41.098Z,2.77
2024-03-24T03:45:11.935Z,2.79
2024-03-24T03:47:41.509Z,2.80
2024-03-24T03:50:17.261Z,2.80
2024-03-24T03:52:48.794Z,2.75
2024-03-24T03:55:18.247Z,2.72
2024-03-24T03:57:47.588Z,2.66
2024-03-24T04:00:16.835Z,2.69
2024-03-24T04:02:49.082Z,2.71
2024-03-24T04:05:18.835Z,2.60
2024-03-24T04:07:47.589Z,2.60
2024-03-24T04:10:17.083Z,2.63
2024-03-24T04:12:46.114Z,2.69
2024-03-24T04:15:14.761Z,2.70
2024-03-24T04:17:43.689Z,2.70
2024-03-24T04:20:12.960Z,2.67
2024-03-24T04:22:44.631Z,2.65
2024-03-24T04:25:13.730Z,2.64
2024-03-24T04:27:42.842Z,2.63
2024-03-24T04:30:13.881Z,2.63
2024-03-24T04:32:42.934Z,2.59
2024-03-24T04:35:11.959Z,2.59
2024-03-24T04:37:41.009Z,2.59
2024-03-24T04:40:10.644Z,2.62
2024-03-24T04:42:40.042Z,2.67
2024-03-24T04:45:10.027Z,2.71
2024-03-24T04:47:39.116Z,2.70
2024-03-24T04:50:10.061Z,2.67
2024-03-24T04:52:42.717Z,2.73
2024-03-24T04:55:13.724Z,2.77
2024-03-24T04:57:43.152Z,2.81
2024-03-24T05:00:12.524Z,2.82
2024-03-24T05:02:42.087Z,2.82
2024-03-24T05:05:11.333Z,2.82
2024-03-24T05:07:41.623Z,2.87
2024-03-24T05:10:10.968Z,2.90
2024-03-24T05:12:40.351Z,2.90
2024-03-24T05:15:11.143Z,2.93
2024-03-24T05:17:40.748Z,2.97
2024-03-24T05:20:10.444Z,2.94
2024-03-24T05:22:40.011Z,2.96
2024-03-24T05:25:09.664Z,2.91
2024-03-24T05:27:38.689Z,3.00
2024-03-24T05:30:08.256Z,3.05
2024-03-24T05:32:37.409Z,3.06
2024-03-24T05:35:07.630Z,3.14
2024-03-24T05:37:36.711Z,3.14
2024-03-24T05:40:06.588Z,3.21
2024-03-24T05:42:35.651Z,3.20
2024-03-24T05:45:05.143Z,3.26
2024-03-24T05:47:34.198Z,3.35
2024-03-24T05:50:02.972Z,3.31
2024-03-24T05:52:32.083Z,3.31
2024-03-24T05:55:00.596Z,3.28
2024-03-24T05:57:29.635Z,3.36
2024-03-24T05:59:58.736Z,3.36
2024-03-24T06:02:27.844Z,3.39
2024-03-24T06:04:56.918Z,3.49
2024-03-24T06:07:25.958Z,3.57
2024-03-24T06:09:54.982Z,3.55
2024-03-24T06:12:24.020Z,3.55
2024-03-24T06:14:52.984Z,3.54
2024-03-24T06:17:23.368Z,3.62
2024-03-24T06:19:53.064Z,3.67
2024-03-24T06:22:22.243Z,3.68
2024-03-24T06:24:51.221Z,3.64
2024-03-24T06:27:20.293Z,3.59
2024-03-24T06:29:49.348Z,3.61
2024-03-24T06:32:18.371Z,3.57
2024-03-24T06:34:47.013Z,3.53
2024-03-24T06:37:16.050Z,3.58
2024-03-24T06:39:45.139Z,3.63
2024-03-24T06:42:14.120Z,3.73
2024-03-24T06:44:44.019Z,3.81
2024-03-24T06:47:13.005Z,3.82
2024-03-24T06:49:42.647Z,3.82
2024-03-24T06:52:11.206Z,3.83
2024-03-24T06:54:40.231Z,3.91
2024-03-24T06:57:09.215Z,3.97
2024-03-24T06:59:38.321Z,4.01
2024-03-24T07:02:07.430Z,4.04
2024-03-24T07:04:39.382Z,4.04
2024-03-24T07:07:08.370Z,4.13
2024-03-24T07:09:37.410Z,4.12
2024-03-24T07:12:06.731Z,4.12
2024-03-24T07:14:35.705Z,4.04
2024-03-24T07:17:04.714Z,3.97
2024-03-24T07:19:33.732Z,4.04
2024-03-24T07:22:02.868Z,4.14
2024-03-24T07:24:31.921Z,4.18
2024-03-24T07:27:00.544Z,4.23
2024-03-24T07:29:29.803Z,4.46
2024-03-24T07:31:58.355Z,4.54
2024-03-24T07:34:27.403Z,4.66
2024-03-24T07:36:56.434Z,4.71
2024-03-24T07:39:28.548Z,4.63
2024-03-24T07:41:57.568Z,4.61
2024-03-24T07:44:26.700Z,4.67
2024-03-24T07:46:57.103Z,4.71
2024-03-24T07:49:26.126Z,4.86
2024-03-24T07:51:54.674Z,4.82
2024-03-24T07:54:23.863Z,5.02
2024-03-24T07:56:52.802Z,5.10
2024-03-24T07:59:21.924Z,5.11
2024-03-24T08:01:51.034Z,5.18
2024-03-24T08:04:20.286Z,5.46
2024-03-24T08:06:50.232Z,5.62
2024-03-24T08:09:19.325Z,5.56
2024-03-24T08:11:48.373Z,5.57
2024-03-24T08:14:17.491Z,5.59
2024-03-24T08:16:46.576Z,5.44
2024-03-24T08:19:15.623Z,5.58
2024-03-24T08:21:44.768Z,5.75
2024-03-24T08:24:13.978Z,5.59
2024-03-24T08:26:43.194Z,5.54
2024-03-24T08:29:12.567Z,5.60
2024-03-24T08:31:41.578Z,5.58
2024-03-24T08:34:10.596Z,5.52
2024-03-24T08:36:39.716Z,5.53
2024-03-24T08:39:10.083Z,5.50
2024-03-24T08:41:40.636Z,5.65
2024-03-24T08:44:11.055Z,5.64
2024-03-24T08:46:41.491Z,5.85
2024-03-24T08:49:10.257Z,6.04
2024-03-24T08:51:39.452Z,6.19
2024-03-24T08:54:08.040Z,6.10
2024-03-24T08:56:37.116Z,5.85
2024-03-24T08:59:06.199Z,6.19
2024-03-24T09:01:37.366Z,6.63
2024-03-24T09:04:07.836Z,6.62
2024-03-24T09:06:37.300Z,6.68
2024-03-24T09:09:05.952Z,6.53
2024-03-24T09:11:34.880Z,6.54
2024-03-24T09:14:03.651Z,6.61
2024-03-24T09:16:34.250Z,6.70
2024-03-24T09:19:04.955Z,6.85
2024-03-24T09:21:33.943Z,7.03
2024-03-24T09:24:03.136Z,7.25
2024-03-24T09:26:32.263Z,7.19
2024-03-24T09:29:01.207Z,7.55
2024-03-24T09:31:31.122Z,7.60
2024-03-24T09:34:00.188Z,7.51
2024-03-24T09:36:29.167Z,7.69
2024-03-24T09:38:58.206Z,7.88
2024-03-24T09:41:28.379Z,7.87
2024-03-24T09:43:59.025Z,8.05
2024-03-24T09:46:28.714Z,8.02
2024-03-24T09:48:59.650Z,8.23
2024-03-24T09:51:29.537Z,8.25
2024-03-24T09:53:58.144Z,8.41
2024-03-24T09:56:27.758Z,8.33
2024-03-24T09:59:00.501Z,8.31
2024-03-24T10:01:30.141Z,8.14
2024-03-24T10:03:59.629Z,8.04
2024-03-24T10:06:30.132Z,8.23
2024-03-24T10:08:59.487Z,8.32
2024-03-24T10:11:35.956Z,8.24
2024-03-24T10:14:09.418Z,8.30
2024-03-24T10:16:38.502Z,8.26
2024-03-24T10:19:12.293Z,8.31
2024-03-24T10:21:41.330Z,8.43
2024-03-24T10:24:10.559Z,8.47
2024-03-24T10:26:39.244Z,8.40
2024-03-24T10:29:08.323Z,8.63
2024-03-24T10:31:37.521Z,8.95
2024-03-24T10:34:06.497Z,9.25
2024-03-24T10:36:38.355Z,9.34
2024-03-24T10:39:07.966Z,9.17
2024-03-24T10:41:37.071Z,9.47
2024-03-24T10:44:06.444Z,9.95
2024-03-24T10:46:36.904Z,10.21
2024-03-24T10:49:11.182Z,10.12
2024-03-24T10:51:41.440Z,10.06
2024-03-24T10:54:11.226Z,10.20
2024-03-24T10:56:40.695Z,10.30
2024-03-24T10:59:12.490Z,10.27
2024-03-24T11:01:42.279Z,10.15
2024-03-24T11:04:11.391Z,10.17
2024-03-24T11:06:40.877Z,10.14
2024-03-24T11:09:13.100Z,10.04
2024-03-24T11:11:42.889Z,10.35
2024-03-24T11:14:12.984Z,10.38
2024-03-24T11:16:41.641Z,10.38
2024-03-24T11:19:10.504Z,10.49
2024-03-24T11:21:41.512Z,10.38
2024-03-24T11:24:32.253Z,10.15
2024-03-24T11:27:08.715Z,10.21
2024-03-24T11:29:53.952Z,10.10
2024-03-24T11:32:54.136Z,9.96
2024-03-24T11:35:30.425Z,10.01
2024-03-24T11:38:00.185Z,10.04
2024-03-24T11:40:29.677Z,9.95
2024-03-24T11:42:59.598Z,10.04
2024-03-24T11:45:30.637Z,10.69
2024-03-24T11:48:18.685Z,11.03
2024-03-24T11:50:47.757Z,10.56
2024-03-24T11:53:17.150Z,10.21
2024-03-24T11:55:47.351Z,10.06
2024-03-24T11:58:15.914Z,10.41
2024-03-24T12:00:49.404Z,10.64
2024-03-24T12:03:18.600Z,10.63
2024-03-24T12:05:49.021Z,10.31
2024-03-24T12:08:18.795Z,10.11
2024-03-24T12:10:48.518Z,9.99
2024-03-24T12:13:17.734Z,9.94
2024-03-24T12:15:46.834Z,9.82
2024-03-24T12:18:15.875Z,9.74
2024-03-24T12:20:45.315Z,9.61
2024-03-24T12:23:15.619Z,9.67
2024-03-24T12:25:46.064Z,9.82
2024-03-24T12:28:17.269Z,9.83
2024-03-24T12:30:50.724Z,10.01
2024-03-24T12:33:21.618Z,9.98
2024-03-24T12:35:51.511Z,10.01
2024-03-24T12:38:21.204Z,10.00
2024-03-24T12:40:55.517Z,10.09
2024-03-24T12:43:26.107Z,10.39
2024-03-24T12:45:59.202Z,10.45
2024-03-24T12:48:30.524Z,10.49
2024-03-24T12:50:59.668Z,10.35
2024-03-24T12:54:02.603Z,10.25
2024-03-24T12:56:31.813Z,10.20
2024-03-24T12:59:00.930Z,10.77
2024-03-24T13:01:31.249Z,11.25
2024-03-24T13:04:01.891Z,11.54
2024-03-24T13:06:34.975Z,11.58
2024-03-24T13:09:07.888Z,11.28
2024-03-24T13:11:37.423Z,11.44
2024-03-24T13:14:06.480Z,12.00
2024-03-24T13:16:54.409Z,12.18
2024-03-24T13:19:29.258Z,12.20
2024-03-24T13:22:01.774Z,12.35
2024-03-24T13:24:45.625Z,12.62
2024-03-24T13:27:22.240Z,13.20
2024-03-24T13:29:52.088Z,13.58
2024-03-24T13:32:21.856Z,13.88
2024-03-24T13:34:51.092Z,13.64
2024-03-24T13:37:27.379Z,12.36
2024-03-24T13:40:04.012Z,11.47
2024-03-24T13:42:58.768Z,10.98
2024-03-24T13:45:52.818Z,10.59
2024-03-24T13:48:24.537Z,10.40
2024-03-24T13:50:54.862Z,10.09
2024-03-24T13:53:25.179Z,9.46
2024-03-24T13:55:59.451Z,8.64
2024-03-24T13:58:28.715Z,8.46
2024-03-24T14:00:57.812Z,8.35
2024-03-24T14:03:28.203Z,8.38
2024-03-24T14:05:59.079Z,8.65
2024-03-24T14:08:28.382Z,8.90
2024-03-24T14:10:59.044Z,9.32
2024-03-24T14:13:40.213Z,9.57
2024-03-24T14:16:39.526Z,9.83
2024-03-24T14:19:36.621Z,9.61
2024-03-24T14:22:12.708Z,9.78
2024-03-24T14:25:03.845Z,9.89
2024-03-24T14:27:34.286Z,9.67
2024-03-24T14:30:04.326Z,9.67
2024-03-24T14:32:33.848Z,9.71
2024-03-24T14:35:04.330Z,9.98
2024-03-24T14:37:57.094Z,10.17
2024-03-24T14:40:49.775Z,10.17
2024-03-24T14:43:34.694Z,10.29
2024-03-24T14:46:27.722Z,10.23
2024-03-24T14:48:57.142Z,9.94
2024-03-24T14:51:25.737Z,10.13
2024-03-24T14:53:54.806Z,10.16
2024-03-24T14:56:25.589Z,10.11
2024-03-24T14:58:54.626Z,9.96
2024-03-24T15:01:23.858Z,9.96
2024-03-24T15:03:54.247Z,9.74
2024-03-24T15:06:23.394Z,9.64
2024-03-24T15:08:52.736Z,9.67
2024-03-24T15:11:22.606Z,9.66
2024-03-24T15:13:51.257Z,9.72
2024-03-24T15:16:22.603Z,9.76
2024-03-24T15:18:51.264Z,9.71
2024-03-24T15:21:19.808Z,9.65
2024-03-24T15:23:49.209Z,9.60
2024-03-24T15:26:17.841Z,9.51
2024-03-24T15:28:46.871Z,9.30
2024-03-24T15:31:15.524Z,9.14
2024-03-24T15:33:44.578Z,8.96
2024-03-24T15:36:14.206Z,8.81
2024-03-24T15:38:43.558Z,8.79
2024-03-24T15:41:12.145Z,8.77
2024-03-24T15:43:41.202Z,8.62
2024-03-24T15:46:10.352Z,8.57
2024-03-24T15:48:39.900Z,8.48
2024-03-24T15:51:09.021Z,8.39
2024-03-24T15:53:38.055Z,8.34
2024-03-24T15:56:18.765Z,8.17
2024-03-24T15:59:20.231Z,7.94
2024-03-24T16:02:17.351Z,7.99
2024-03-24T16:04:47.858Z,8.05
2024-03-24T16:07:35.460Z,8.08
2024-03-24T16:10:11.083Z,8.19
2024-03-24T16:13:02.105Z,8.38
2024-03-24T16:15:31.247Z,8.64
2024-03-24T16:18:00.490Z,8.53
2024-03-24T16:20:37.456Z,8.39
2024-03-24T16:23:06.729Z,8.68
2024-03-24T16:25:35.852Z,8.80
2024-03-24T16:28:05.144Z,8.72
2024-03-24T16:30:37.682Z,8.72
2024-03-24T16:33:15.704Z,8.61
2024-03-24T16:35:46.199Z,8.43
2024-03-24T16:38:15.254Z,8.18
2024-03-24T16:40:45.959Z,7.90
2024-03-24T16:43:14.635Z,7.87
2024-03-24T16:45:43.700Z,7.80
2024-03-24T16:48:12.645Z,7.78
2024-03-24T16:50:41.721Z,7.79
2024-03-24T16:53:10.782Z,7.88
2024-03-24T16:55:41.281Z,7.98
2024-03-24T16:58:10.366Z,7.95
2024-03-24T17:00:43.787Z,7.84
2024-03-24T17:03:13.025Z,7.85
2024-03-24T17:05:43.494Z,7.88
2024-03-24T17:08:12.554Z,7.88
2024-03-24T17:10:45.937Z,7.82
2024-03-24T17:13:15.691Z,7.71
2024-03-24T17:15:44.952Z,7.63
2024-03-24T17:18:14.153Z,7.51
2024-03-24T17:20:44.219Z,7.37
2024-03-24T17:23:13.633Z,7.20
2024-03-24T17:25:42.638Z,7.12
2024-03-24T17:28:11.611Z,7.21
2024-03-24T17:30:43.522Z,7.14
2024-03-24T17:33:12.943Z,7.12
2024-03-24T17:35:42.293Z,7.12
2024-03-24T17:38:12.760Z,7.11
2024-03-24T17:40:41.773Z,7.11
2024-03-24T17:43:10.922Z,7.09
2024-03-24T17:45:40.026Z,7.11
2024-03-24T17:48:09.487Z,7.12
2024-03-24T17:50:39.817Z,7.15
2024-03-24T17:53:08.421Z,7.14
2024-03-24T17:55:37.983Z,7.13
2024-03-24T17:58:06.977Z,7.14
2024-03-24T18:00:37.517Z,7.10
2024-03-24T18:03:08.113Z,7.05
2024-03-24T18:05:38.057Z,7.00
2024-03-24T18:08:25.641Z,6.99
2024-03-24T18:10:54.374Z,7.08
2024-03-24T18:13:23.568Z,7.13
2024-03-24T18:15:54.805Z,7.10
2024-03-24T18:18:23.941Z,7.11
2024-03-24T18:20:53.360Z,7.17
2024-03-24T18:23:23.391Z,7.12
2024-03-24T18:25:52.424Z,7.10
2024-03-24T18:28:23.330Z,7.07
2024-03-24T18:30:52.517Z,7.13
2024-03-24T18:33:21.480Z,7.22
2024-03-24T18:35:50.682Z,7.19
2024-03-24T18:38:19.706Z,7.05
2024-03-24T18:40:50.073Z,6.97
2024-03-24T18:43:19.198Z,6.88
2024-03-24T18:45:48.288Z,6.85
2024-03-24T18:48:17.326Z,6.82
2024-03-24T18:50:46.547Z,6.85
2024-03-24T18:53:15.664Z,6.83
2024-03-24T18:55:44.840Z,6.77
2024-03-24T18:58:13.875Z,6.78
2024-03-24T19:00:43.129Z,6.75
2024-03-24T19:03:14.265Z,6.75
2024-03-24T19:05:44.042Z,6.76
2024-03-24T19:08:16.524Z,6.79
2024-03-24T19:10:45.088Z,6.81
2024-03-24T19:13:14.150Z,6.87
2024-03-24T19:15:43.281Z,6.80
2024-03-24T19:18:11.893Z,6.79
2024-03-24T19:20:41.314Z,6.83
2024-03-24T19:23:10.304Z,6.85
2024-03-24T19:25:45.814Z,6.86
2024-03-24T19:28:18.827Z,6.85
2024-03-24T19:30:49.342Z,6.86
2024-03-24T19:33:18.451Z,6.88
2024-03-24T19:35:47.539Z,6.83
2024-03-24T19:38:16.551Z,6.83
2024-03-24T19:40:46.684Z,6.90
2024-03-24T19:43:15.920Z,6.91
2024-03-24T19:45:46.226Z,6.89
2024-03-24T19:48:15.490Z,6.94
2024-03-24T19:50:45.333Z,6.94
2024-03-24T19:53:14.345Z,6.92
2024-03-24T19:55:43.445Z,6.92
2024-03-24T19:58:12.461Z,6.87
2024-03-24T20:00:41.528Z,6.86
2024-03-24T20:03:11.701Z,6.82
2024-03-24T20:05:41.428Z,6.85
2024-03-24T20:08:10.725Z,6.81
2024-03-24T20:10:43.566Z,6.77
2024-03-24T20:13:12.593Z,6.72
2024-03-24T20:15:42.620Z,6.74
2024-03-24T20:18:12.132Z,6.69
2024-03-24T20:20:43.119Z,6.69
2024-03-24T20:23:14.696Z,6.65
2024-03-24T20:25:43.789Z,6.64
2024-03-24T20:28:12.877Z,6.68
2024-03-24T20:30:41.903Z,6.68
2024-03-24T20:33:11.039Z,6.70
2024-03-24T20:35:40.617Z,6.69
2024-03-24T20:38:14.047Z,6.68
2024-03-24T20:40:43.457Z,6.59
2024-03-24T20:43:12.496Z,6.54
2024-03-24T20:45:43.236Z,6.50
2024-03-24T20:48:12.296Z,6.50
2024-03-24T20:50:41.439Z,6.52
2024-03-24T20:53:10.743Z,6.50
2024-03-24T20:55:39.389Z,6.51
2024-03-24T20:58:08.376Z,6.43
2024-03-24T21:00:37.418Z,6.40
2024-03-24T21:03:12.172Z,6.34
2024-03-24T21:05:42.215Z,6.35
2024-03-24T21:08:11.236Z,6.22
2024-03-24T21:10:40.257Z,6.20
2024-03-24T21:13:10.162Z,6.22
2024-03-24T21:15:39.699Z,6.18
2024-03-24T21:18:08.766Z,6.26
2024-03-24T21:20:37.963Z,6.31
2024-03-24T21:23:09.534Z,6.27
2024-03-24T21:25:38.210Z,6.23
2024-03-24T21:28:08.041Z,6.22
2024-03-24T21:30:37.272Z,6.23
2024-03-24T21:33:06.480Z,6.22
2024-03-24T21:35:35.666Z,6.17
2024-03-24T21:38:23.826Z,6.10
2024-03-24T21:41:11.997Z,6.19
2024-03-24T21:43:41.053Z,6.20
2024-03-24T21:46:10.160Z,6.26
2024-03-24T21:48:39.239Z,6.22
2024-03-24T21:51:08.358Z,6.29
2024-03-24T21:53:38.261Z,6.31
2024-03-24T21:56:08.644Z,6.33
2024-03-24T21:58:37.835Z,6.31
2024-03-24T22:01:06.818Z,6.15
2024-03-24T22:03:36.545Z,6.16
2024-03-24T22:06:06.094Z,6.05
2024-03-24T22:08:39.564Z,6.01
2024-03-24T22:11:09.037Z,5.99
2024-03-24T22:13:38.107Z,5.96
2024-03-24T22:16:07.819Z,5.97
2024-03-24T22:18:37.058Z,5.97
2024-03-24T22:21:07.130Z,5.99
2024-03-24T22:23:36.409Z,5.97
2024-03-24T22:26:05.522Z,5.91
2024-03-24T22:28:34.459Z,5.93
2024-03-24T22:31:03.672Z,5.89
2024-03-24T22:33:33.929Z,5.94
2024-03-24T22:36:04.271Z,5.81
2024-03-24T22:38:35.201Z,5.90
2024-03-24T22:41:06.847Z,5.91
2024-03-24T22:43:35.436Z,5.77
2024-03-24T22:46:04.684Z,5.78
2024-03-24T22:48:34.136Z,5.90
2024-03-24T22:51:03.426Z,5.94
2024-03-24T22:53:32.586Z,5.96
2024-03-24T22:56:01.144Z,5.92
2024-03-24T22:58:30.520Z,5.95
2024-03-24T23:00:59.583Z,5.96
2024-03-24T23:03:28.619Z,6.03
2024-03-24T23:05:58.375Z,6.11
2024-03-24T23:08:27.493Z,6.12
2024-03-24T23:10:56.739Z,6.07
2024-03-24T23:13:26.842Z,6.07
2024-03-24T23:15:55.908Z,6.01
2024-03-24T23:18:25.390Z,6.04
2024-03-24T23:20:53.934Z,6.13
2024-03-24T23:23:22.934Z,6.20
2024-03-24T23:25:51.903Z,6.23
2024-03-24T23:28:20.920Z,6.26
2024-03-24T23:30:50.099Z,6.30
2024-03-24T23:33:19.211Z,6.23
2024-03-24T23:35:48.257Z,6.24
2024-03-24T23:38:17.290Z,6.28
2024-03-24T23:40:46.333Z,6.15
2024-03-24T23:43:15.534Z,6.17
2024-03-24T23:45:44.150Z,6.20
2024-03-24T23:48:13.221Z,6.24
2024-03-24T23:50:42.417Z,6.24
2024-03-24T23:53:11.894Z,6.28
2024-03-24T23:55:41.513Z,6.33
2024-03-24T23:58:10.520Z,6.32
